Time,TemperatureF,DewpointF,PressureIn,WindDirection,WindDirectionDegrees,WindSpeedMPH,WindSpeedGustMPH,Humidity,HourlyPrecipIn,Conditions,Clouds,dailyrainin,SoftwareType,DateUTC
2013-01-17 00:00:00,30.6,29.9,30.49,ESE,121,12.0,12.0,97,0.00,,,0.00,Wunderground v.1.15,2013-01-17 08:00:00,
2013-01-17 00:05:00,30.6,29.9,30.49,SE,135,10.0,12.0,97,0.00,,,0.00,Wunderground v.1.15,2013-01-17 08:05:00,
2013-01-17 00:10:00,30.5,29.8,30.49,SE,131,10.0,11.0,97,0.00,,,0.00,Wunderground v.1.15,2013-01-17 08:10:00,
2013-01-17 00:15:00,30.5,29.8,30.49,SE,126,9.0,11.0,97,0.00,,,0.00,Wunderground v.1.15,2013-01-17 08:15:00,
2013-01-17 00:20:00,30.5,29.8,30.49,SSE,155,8.0,8.0,97,0.00,,,0.00,Wunderground v.1.15,2013-01-17 08:20:00,
2013-01-17 00:25:00,30.7,30.0,30.48,SE,136,9.0,13.0,97,0.00,,,0.00,Wunderground v.1.15,2013-01-17 08:25:00,
2013-01-17 00:30:00,31.1,30.3,30.49,SE,130,12.0,16.0,97,0.00,,,0.00,Wunderground v.1.15,2013-01-17 08:30:00,
2013-01-17 00:35:00,30.9,30.1,30.49,SE,133,12.0,16.0,97,0.00,,,0.00,Wunderground v.1.15,2013-01-17 08:35:00,
2013-01-17 00:40:00,30.8,30.0,30.49,ESE,119,12.0,12.0,97,0.00,,,0.00,Wunderground v.1.15,2013-01-17 08:40:00,
2013-01-17 00:45:00,31.0,30.2,30.49,SE,132,12.0,12.0,97,0.00,,,0.00,Wunderground v.1.15,2013-01-17 08:45:00,
2013-01-17 00:50:00,30.7,30.0,30.49,SE,139,12.0,13.0,97,0.00,,,0.00,Wunderground v.1.15,2013-01-17 08:50:00,
2013-01-17 00:55:00,30.7,30.0,30.49,SE,128,12.0,13.0,97,0.00,,,0.00,Wunderground v.1.15,2013-01-17 08:55:00,
2013-01-17 01:00:00,30.8,30.0,30.49,SE,140,12.0,13.0,97,0.00,,,0.00,Wunderground v.1.15,2013-01-17 09:00:00,
2013-01-17 01:05:00,30.9,30.1,30.49,SE,140,13.0,13.0,97,0.00,,,0.00,Wunderground v.1.15,2013-01-17 09:05:00,
2013-01-17 01:10:00,30.6,29.9,30.49,ESE,118,13.0,13.0,97,0.00,,,0.00,Wunderground v.1.15,2013-01-17 09:10:00,
2013-01-17 01:15:00,30.6,30.1,30.49,SE,127,12.0,14.0,98,0.00,,,0.00,Wunderground v.1.15,2013-01-17 09:15:00,
2013-01-17 01:20:00,30.7,30.2,30.49,SE,134,11.0,11.0,98,0.00,,,0.00,Wunderground v.1.15,2013-01-17 09:20:00,
2013-01-17 01:25:00,31.0,30.5,30.49,SSE,150,11.0,11.0,98,0.00,,,0.00,Wunderground v.1.15,2013-01-17 09:25:00,
2013-01-17 01:30:00,30.8,30.0,30.49,SE,134,11.0,11.0,97,0.00,,,0.00,Wunderground v.1.15,2013-01-17 09:30:00,
2013-01-17 01:35:00,30.7,30.0,30.49,SE,141,12.0,15.0,97,0.00,,,0.00,Wunderground v.1.15,2013-01-17 09:35:00,
2013-01-17 01:40:00,30.9,30.1,30.48,SE,136,12.0,14.0,97,0.00,,,0.00,Wunderground v.1.15,2013-01-17 09:40:00,
2013-01-17 01:45:00,31.0,30.2,30.48,SE,132,13.0,14.0,97,0.00,,,0.00,Wunderground v.1.15,2013-01-17 09:45:00,
2013-01-17 01:50:00,31.0,30.2,30.49,ESE,112,12.0,12.0,97,0.00,,,0.00,Wunderground v.1.15,2013-01-17 09:50:00,
2013-01-17 01:55:00,30.6,29.9,30.49,SE,138,10.0,12.0,97,0.00,,,0.00,Wunderground v.1.15,2013-01-17 09:55:00,
2013-01-17 02:00:00,30.6,29.9,30.49,SE,131,10.0,10.0,97,0.00,,,0.00,Wunderground v.1.15,2013-01-17 10:00:00,
2013-01-17 02:05:00,30.8,30.0,30.49,SE,125,11.0,11.0,97,0.00,,,0.00,Wunderground v.1.15,2013-01-17 10:05:00,
2013-01-17 02:10:00,31.0,30.2,30.49,SE,139,12.0,12.0,97,0.00,,,0.00,Wunderground v.1.15,2013-01-17 10:10:00,
2013-01-17 02:15:00,31.1,30.3,30.49,ESE,115,12.0,12.0,97,0.00,,,0.00,Wunderground v.1.15,2013-01-17 10:15:00,
2013-01-17 02:20:00,30.9,30.1,30.49,SE,124,11.0,12.0,97,0.00,,,0.00,Wunderground v.1.15,2013-01-17 10:20:00,
2013-01-17 02:25:00,30.8,30.0,30.49,ESE,117,11.0,12.0,97,0.00,,,0.00,Wunderground v.1.15,2013-01-17 10:25:00,
2013-01-17 02:35:00,30.8,30.0,30.49,SE,136,11.0,12.0,97,0.00,,,0.00,Wunderground v.1.15,2013-01-17 10:35:00,
2013-01-17 02:40:00,31.0,30.2,30.49,SE,136,12.0,14.0,97,0.00,,,0.00,Wunderground v.1.15,2013-01-17 10:40:00,
2013-01-17 02:45:00,31.1,30.3,30.49,SE,140,13.0,15.0,97,0.00,,,0.00,Wunderground v.1.15,2013-01-17 10:45:00,
2013-01-17 02:50:00,31.0,30.2,30.49,SE,142,13.0,15.0,97,0.00,,,0.00,Wunderground v.1.15,2013-01-17 10:50:00,
2013-01-17 02:55:00,30.9,30.1,30.49,ESE,122,13.0,15.0,97,0.00,,,0.00,Wunderground v.1.15,2013-01-17 10:55:00,
2013-01-17 03:00:00,31.0,30.2,30.49,SE,131,13.0,13.0,97,0.00,,,0.00,Wunderground v.1.15,2013-01-17 11:00:00,
2013-01-17 03:05:00,31.1,30.6,30.49,SE,129,13.0,13.0,98,0.00,,,0.00,Wunderground v.1.15,2013-01-17 11:05:00,
2013-01-17 03:10:00,30.9,30.1,30.49,SE,140,13.0,13.0,97,0.00,,,0.00,Wunderground v.1.15,2013-01-17 11:10:00,
2013-01-17 03:15:00,30.9,30.1,30.48,SE,134,14.0,14.0,97,0.00,,,0.00,Wunderground v.1.15,2013-01-17 11:15:00,
2013-01-17 03:20:00,30.7,30.0,30.48,SE,144,14.0,14.0,97,0.00,,,0.00,Wunderground v.1.15,2013-01-17 11:20:00,
2013-01-17 03:25:00,30.7,30.0,30.48,SE,136,15.0,15.0,97,0.00,,,0.00,Wunderground v.1.15,2013-01-17 11:25:00,
2013-01-17 03:30:00,30.8,30.0,30.47,SE,134,14.0,14.0,97,0.00,,,0.00,Wunderground v.1.15,2013-01-17 11:30:00,
2013-01-17 03:35:00,30.8,30.0,30.47,SE,138,14.0,14.0,97,0.00,,,0.00,Wunderground v.1.15,2013-01-17 11:35:00,
2013-01-17 03:40:00,30.7,30.0,30.47,ESE,112,13.0,13.0,97,0.00,,,0.00,Wunderground v.1.15,2013-01-17 11:40:00,
2013-01-17 03:45:00,30.4,29.7,30.47,SSE,151,10.0,13.0,97,0.00,,,0.00,Wunderground v.1.15,2013-01-17 11:45:00,
2013-01-17 03:55:00,30.3,29.6,30.47,East,101,7.0,9.0,97,0.00,,,0.00,Wunderground v.1.15,2013-01-17 11:55:00,
2013-01-17 04:00:00,30.3,29.6,30.47,ESE,119,8.0,8.0,97,0.00,,,0.00,Wunderground v.1.15,2013-01-17 12:00:00,
2013-01-17 04:05:00,30.4,29.7,30.46,ESE,108,10.0,10.0,97,0.00,,,0.00,Wunderground v.1.15,2013-01-17 12:05:00,
2013-01-17 04:10:00,30.6,30.1,30.46,SE,136,11.0,14.0,98,0.00,,,0.00,Wunderground v.1.15,2013-01-17 12:10:00,
2013-01-17 04:15:00,30.5,29.8,30.46,SE,130,11.0,14.0,97,0.00,,,0.00,Wunderground v.1.15,2013-01-17 12:15:00,
2013-01-17 04:20:00,30.7,30.2,30.46,SE,126,11.0,11.0,98,0.00,,,0.00,Wunderground v.1.15,2013-01-17 12:20:00,
2013-01-17 04:25:00,30.5,29.8,30.45,SE,131,11.0,11.0,97,0.00,,,0.00,Wunderground v.1.15,2013-01-17 12:25:00,
2013-01-17 04:35:00,30.3,29.6,30.45,SE,136,11.0,11.0,97,0.00,,,0.00,Wunderground v.1.15,2013-01-17 12:35:00,
2013-01-17 04:40:00,30.3,29.6,30.45,SE,131,10.0,10.0,97,0.00,,,0.00,Wunderground v.1.15,2013-01-17 12:40:00,
2013-01-17 04:45:00,30.4,29.7,30.45,ESE,111,9.0,10.0,97,0.00,,,0.00,Wunderground v.1.15,2013-01-17 12:45:00,
2013-01-17 04:50:00,30.4,29.7,30.45,ESE,105,9.0,9.0,97,0.00,,,0.00,Wunderground v.1.15,2013-01-17 12:50:00,
2013-01-17 04:55:00,30.3,29.6,30.44,ESE,121,8.0,9.0,97,0.00,,,0.00,Wunderground v.1.15,2013-01-17 12:55:00,
2013-01-17 05:00:00,30.5,29.8,30.44,SE,137,8.0,8.0,97,0.00,,,0.00,Wunderground v.1.15,2013-01-17 13:00:00,
2013-01-17 05:05:00,30.6,29.9,30.44,SE,131,9.0,11.0,97,0.00,,,0.00,Wunderground v.1.15,2013-01-17 13:05:00,
2013-01-17 05:10:00,30.4,29.7,30.44,SE,137,8.0,8.0,97,0.00,,,0.00,Wunderground v.1.15,2013-01-17 13:10:00,
2013-01-17 05:15:00,30.4,29.7,30.44,ESE,109,7.0,8.0,97,0.00,,,0.00,Wunderground v.1.15,2013-01-17 13:15:00,
2013-01-17 05:20:00,30.4,29.7,30.44,SE,126,7.0,7.0,97,0.00,,,0.00,Wunderground v.1.15,2013-01-17 13:20:00,
2013-01-17 05:30:00,30.5,29.8,30.43,SE,128,6.0,7.0,97,0.00,,,0.00,Wunderground v.1.15,2013-01-17 13:30:00,
2013-01-17 05:35:00,30.6,30.1,30.43,SE,124,8.0,8.0,98,0.00,,,0.00,Wunderground v.1.15,2013-01-17 13:35:00,
2013-01-17 05:40:00,30.8,30.3,30.43,SE,130,10.0,13.0,98,0.00,,,0.00,Wunderground v.1.15,2013-01-17 13:40:00,
2013-01-17 05:45:00,30.7,30.0,30.43,SE,130,13.0,16.0,97,0.00,,,0.00,Wunderground v.1.15,2013-01-17 13:45:00,
2013-01-17 05:50:00,30.8,30.0,30.43,SE,128,13.0,13.0,97,0.00,,,0.00,Wunderground v.1.15,2013-01-17 13:50:00,
2013-01-17 05:55:00,30.8,30.0,30.43,SE,128,13.0,15.0,97,0.00,,,0.00,Wunderground v.1.15,2013-01-17 13:55:00,
2013-01-17 06:00:00,30.7,30.2,30.43,SE,127,14.0,14.0,98,0.00,,,0.00,Wunderground v.1.15,2013-01-17 14:00:00,
2013-01-17 06:05:00,30.4,29.7,30.42,SE,136,14.0,15.0,97,0.00,,,0.00,Wunderground v.1.15,2013-01-17 14:05:00,
2013-01-17 06:10:00,30.3,29.6,30.42,SE,128,14.0,21.0,97,0.00,,,0.00,Wunderground v.1.15,2013-01-17 14:10:00,
2013-01-17 06:15:00,30.3,29.8,30.42,SE,140,14.0,21.0,98,0.00,,,0.00,Wunderground v.1.15,2013-01-17 14:15:00,
2013-01-17 06:20:00,30.3,29.6,30.42,ESE,122,14.0,14.0,97,0.00,,,0.00,Wunderground v.1.15,2013-01-17 14:20:00,
2013-01-17 06:30:00,30.4,29.9,30.43,SE,129,12.0,13.0,98,0.00,,,0.00,Wunderground v.1.15,2013-01-17 14:30:00,
2013-01-17 06:35:00,30.4,29.9,30.43,SE,133,13.0,13.0,98,0.00,,,0.00,Wunderground v.1.15,2013-01-17 14:35:00,
2013-01-17 06:40:00,30.4,29.9,30.42,SE,138,13.0,15.0,98,0.00,,,0.00,Wunderground v.1.15,2013-01-17 14:40:00,
2013-01-17 06:45:00,30.4,29.9,30.42,SE,139,14.0,17.0,98,0.00,,,0.00,Wunderground v.1.15,2013-01-17 14:45:00,
2013-01-17 06:50:00,30.4,29.9,30.42,SE,125,15.0,15.0,98,0.00,,,0.00,Wunderground v.1.15,2013-01-17 14:50:00,
2013-01-17 06:55:00,30.0,29.5,30.43,SE,126,14.0,17.0,98,0.00,,,0.00,Wunderground v.1.15,2013-01-17 14:55:00,
2013-01-17 07:00:00,29.9,29.4,30.42,ESE,123,13.0,13.0,98,0.00,,,0.00,Wunderground v.1.15,2013-01-17 15:00:00,
2013-01-17 07:05:00,30.3,29.8,30.42,SE,136,14.0,14.0,98,0.00,,,0.00,Wunderground v.1.15,2013-01-17 15:05:00,
2013-01-17 07:10:00,30.1,29.6,30.42,SE,140,15.0,15.0,98,0.00,,,0.00,Wunderground v.1.15,2013-01-17 15:10:00,
2013-01-17 07:20:00,30.2,29.7,30.42,ESE,121,14.0,18.0,98,0.00,,,0.00,Wunderground v.1.15,2013-01-17 15:20:00,
2013-01-17 07:25:00,30.5,30.0,30.42,ESE,123,15.0,19.0,98,0.00,,,0.00,Wunderground v.1.15,2013-01-17 15:25:00,
2013-01-17 07:30:00,30.3,29.8,30.42,SE,134,17.0,17.0,98,0.00,,,0.00,Wunderground v.1.15,2013-01-17 15:30:00,
2013-01-17 07:35:00,30.3,29.8,30.42,SE,136,17.0,17.0,98,0.00,,,0.00,Wunderground v.1.15,2013-01-17 15:35:00,
2013-01-17 07:40:00,30.4,29.9,30.42,SE,130,16.0,16.0,98,0.00,,,0.00,Wunderground v.1.15,2013-01-17 15:40:00,
2013-01-17 07:45:00,30.3,29.8,30.42,ESE,118,15.0,16.0,98,0.00,,,0.00,Wunderground v.1.15,2013-01-17 15:45:00,
2013-01-17 07:50:00,30.3,29.8,30.42,SE,124,15.0,15.0,98,0.00,,,0.00,Wunderground v.1.15,2013-01-17 15:50:00,
2013-01-17 07:55:00,30.2,29.7,30.43,SE,134,15.0,15.0,98,0.00,,,0.00,Wunderground v.1.15,2013-01-17 15:55:00,
2013-01-17 08:05:00,30.0,29.5,30.43,SE,139,13.0,14.0,98,0.00,,,0.00,Wunderground v.1.15,2013-01-17 16:05:00,
2013-01-17 08:10:00,29.9,29.4,30.43,ESE,121,12.0,12.0,98,0.00,,,0.00,Wunderground v.1.15,2013-01-17 16:10:00,
2013-01-17 08:15:00,30.2,29.7,30.43,SE,126,11.0,12.0,98,0.00,,,0.00,Wunderground v.1.15,2013-01-17 16:15:00,
2013-01-17 08:20:00,30.0,29.5,30.43,SE,130,11.0,11.0,98,0.00,,,0.00,Wunderground v.1.15,2013-01-17 16:20:00,
2013-01-17 08:25:00,30.3,29.8,30.44,ESE,120,12.0,12.0,98,0.00,,,0.00,Wunderground v.1.15,2013-01-17 16:25:00,
2013-01-17 08:30:00,30.3,29.8,30.44,SE,138,12.0,12.0,98,0.00,,,0.00,Wunderground v.1.15,2013-01-17 16:30:00,
2013-01-17 08:35:00,30.5,30.0,30.44,ESE,122,12.0,12.0,98,0.00,,,0.00,Wunderground v.1.15,2013-01-17 16:35:00,
2013-01-17 08:40:00,30.5,30.0,30.44,ESE,119,11.0,13.0,98,0.00,,,0.00,Wunderground v.1.15,2013-01-17 16:40:00,
2013-01-17 08:45:00,30.6,30.1,30.44,SE,128,11.0,15.0,98,0.00,,,0.00,Wunderground v.1.15,2013-01-17 16:45:00,
2013-01-17 08:50:00,30.6,30.1,30.44,SE,140,12.0,13.0,98,0.00,,,0.00,Wunderground v.1.15,2013-01-17 16:50:00,
2013-01-17 08:55:00,30.7,30.2,30.44,SE,136,12.0,13.0,98,0.00,,,0.00,Wunderground v.1.15,2013-01-17 16:55:00,
2013-01-17 09:00:00,30.7,30.2,30.44,SE,125,11.0,11.0,98,0.00,,,0.00,Wunderground v.1.15,2013-01-17 17:00:00,
2013-01-17 09:05:00,30.6,30.1,30.44,ESE,120,11.0,11.0,98,0.00,,,0.00,Wunderground v.1.15,2013-01-17 17:05:00,
2013-01-17 09:10:00,30.5,30.0,30.44,ESE,119,11.0,12.0,98,0.00,,,0.00,Wunderground v.1.15,2013-01-17 17:10:00,
2013-01-17 09:15:00,30.7,30.2,30.44,SE,128,11.0,12.0,98,0.00,,,0.00,Wunderground v.1.15,2013-01-17 17:15:00,
2013-01-17 09:20:00,30.5,30.0,30.44,SE,144,11.0,11.0,98,0.00,,,0.00,Wunderground v.1.15,2013-01-17 17:20:00,
2013-01-17 09:25:00,30.4,29.9,30.44,SE,138,11.0,12.0,98,0.00,,,0.00,Wunderground v.1.15,2013-01-17 17:25:00,
2013-01-17 09:35:00,30.6,30.1,30.44,SE,130,11.0,14.0,98,0.00,,,0.00,Wunderground v.1.15,2013-01-17 17:35:00,
2013-01-17 09:40:00,30.9,30.4,30.44,ESE,123,11.0,14.0,98,0.00,,,0.00,Wunderground v.1.15,2013-01-17 17:40:00,
2013-01-17 09:45:00,30.9,30.4,30.43,SE,125,12.0,14.0,98,0.00,,,0.00,Wunderground v.1.15,2013-01-17 17:45:00,
2013-01-17 09:50:00,30.9,30.4,30.43,SE,128,12.0,12.0,98,0.00,,,0.00,Wunderground v.1.15,2013-01-17 17:50:00,
2013-01-17 09:55:00,30.8,30.3,30.44,ESE,119,11.0,12.0,98,0.00,,,0.00,Wunderground v.1.15,2013-01-17 17:55:00,
2013-01-17 10:00:00,30.9,30.4,30.43,SE,136,10.0,13.0,98,0.00,,,0.00,Wunderground v.1.15,2013-01-17 18:00:00,
2013-01-17 10:05:00,30.8,30.3,30.43,SE,136,9.0,13.0,98,0.00,,,0.00,Wunderground v.1.15,2013-01-17 18:05:00,
2013-01-17 10:10:00,30.8,30.3,30.44,SE,131,10.0,10.0,98,0.00,,,0.00,Wunderground v.1.15,2013-01-17 18:10:00,
2013-01-17 10:15:00,30.7,30.2,30.44,SE,134,10.0,12.0,98,0.00,,,0.00,Wunderground v.1.15,2013-01-17 18:15:00,
2013-01-17 10:20:00,30.9,30.4,30.44,SE,140,11.0,11.0,98,0.00,,,0.00,Wunderground v.1.15,2013-01-17 18:20:00,
2013-01-17 10:25:00,30.7,30.2,30.44,SE,138,11.0,13.0,98,0.00,,,0.00,Wunderground v.1.15,2013-01-17 18:25:00,
2013-01-17 10:30:00,31.0,30.5,30.44,SE,139,11.0,11.0,98,0.00,,,0.00,Wunderground v.1.15,2013-01-17 18:30:00,
2013-01-17 10:35:00,31.2,30.7,30.43,SE,132,12.0,14.0,98,0.00,,,0.00,Wunderground v.1.15,2013-01-17 18:35:00,
2013-01-17 10:40:00,31.2,30.7,30.43,ESE,123,12.0,16.0,98,0.00,,,0.00,Wunderground v.1.15,2013-01-17 18:40:00,
2013-01-17 10:45:00,31.2,30.7,30.43,SE,126,12.0,16.0,98,0.00,,,0.00,Wunderground v.1.15,2013-01-17 18:45:00,
2013-01-17 10:50:00,31.3,30.8,30.43,SE,130,13.0,13.0,98,0.00,,,0.00,Wunderground v.1.15,2013-01-17 18:50:00,
2013-01-17 10:55:00,31.2,30.7,30.42,ESE,122,14.0,17.0,98,0.00,,,0.00,Wunderground v.1.15,2013-01-17 18:55:00,
2013-01-17 11:00:00,31.5,31.0,30.42,SE,128,13.0,13.0,98,0.00,,,0.00,Wunderground v.1.15,2013-01-17 19:00:00,
2013-01-17 11:05:00,31.4,30.9,30.42,SE,130,11.0,13.0,98,0.00,,,0.00,Wunderground v.1.15,2013-01-17 19:05:00,
2013-01-17 11:10:00,31.5,31.0,30.42,ESE,120,11.0,11.0,98,0.00,,,0.00,Wunderground v.1.15,2013-01-17 19:10:00,
2013-01-17 11:15:00,31.4,30.9,30.41,SE,126,12.0,14.0,98,0.00,,,0.00,Wunderground v.1.15,2013-01-17 19:15:00,
2013-01-17 11:25:00,31.5,30.7,30.41,SE,134,13.0,16.0,97,0.00,,,0.00,Wunderground v.1.15,2013-01-17 19:25:00,
2013-01-17 11:35:00,31.7,31.2,30.41,SE,131,13.0,13.0,98,0.00,,,0.00,Wunderground v.1.15,2013-01-17 19:35:00,
2013-01-17 11:40:00,31.9,31.1,30.40,SE,130,13.0,14.0,97,0.00,,,0.00,Wunderground v.1.15,2013-01-17 19:40:00,
2013-01-17 11:45:00,32.2,31.4,30.40,SE,140,13.0,14.0,97,0.00,,,0.00,Wunderground v.1.15,2013-01-17 19:45:00,
2013-01-17 11:50:00,32.4,31.6,30.39,SSE,147,13.0,14.0,97,0.00,,,0.00,Wunderground v.1.15,2013-01-17 19:50:00,
2013-01-17 11:55:00,32.7,31.9,30.39,SE,126,14.0,14.0,97,0.00,,,0.00,Wunderground v.1.15,2013-01-17 19:55:00,
2013-01-17 12:05:00,33.1,32.3,30.39,SE,146,14.0,15.0,97,0.00,,,0.00,Wunderground v.1.15,2013-01-17 20:05:00,
2013-01-17 12:10:00,33.4,32.4,30.39,SE,144,14.0,15.0,96,0.00,,,0.00,Wunderground v.1.15,2013-01-17 20:10:00,
2013-01-17 12:15:00,33.4,32.4,30.39,SSE,151,14.0,15.0,96,0.00,,,0.00,Wunderground v.1.15,2013-01-17 20:15:00,
2013-01-17 12:20:00,33.5,32.5,30.39,SE,135,13.0,13.0,96,0.00,,,0.00,Wunderground v.1.15,2013-01-17 20:20:00,
2013-01-17 12:25:00,33.5,32.2,30.39,SSE,159,12.0,13.0,95,0.00,,,0.00,Wunderground v.1.15,2013-01-17 20:25:00,
2013-01-17 12:30:00,33.5,32.2,30.39,SSE,151,12.0,13.0,95,0.00,,,0.00,Wunderground v.1.15,2013-01-17 20:30:00,
2013-01-17 12:35:00,33.5,32.2,30.38,SE,137,13.0,14.0,95,0.00,,,0.00,Wunderground v.1.15,2013-01-17 20:35:00,
2013-01-17 12:40:00,33.5,32.2,30.38,SE,142,13.0,13.0,95,0.00,,,0.00,Wunderground v.1.15,2013-01-17 20:40:00,
2013-01-17 12:50:00,33.6,32.3,30.37,SE,143,13.0,14.0,95,0.00,,,0.00,Wunderground v.1.15,2013-01-17 20:50:00,
2013-01-17 12:55:00,33.8,32.5,30.37,SE,144,13.0,14.0,95,0.00,,,0.00,Wunderground v.1.15,2013-01-17 20:55:00,
2013-01-17 13:00:00,33.9,32.6,30.37,SSE,150,12.0,12.0,95,0.00,,,0.00,Wunderground v.1.15,2013-01-17 21:00:00,
2013-01-17 13:05:00,34.1,32.8,30.36,SSE,165,11.0,12.0,95,0.00,,,0.00,Wunderground v.1.15,2013-01-17 21:05:00,
2013-01-17 13:10:00,34.2,32.7,30.36,SE,146,11.0,14.0,94,0.00,,,0.00,Wunderground v.1.15,2013-01-17 21:10:00,
2013-01-17 13:15:00,34.5,33.0,30.36,SSE,156,11.0,14.0,94,0.00,,,0.00,Wunderground v.1.15,2013-01-17 21:15:00,
2013-01-17 13:20:00,34.7,33.2,30.35,SSE,160,11.0,11.0,94,0.00,,,0.00,Wunderground v.1.15,2013-01-17 21:20:00,
2013-01-17 13:25:00,34.9,33.3,30.35,SE,141,11.0,14.0,94,0.00,,,0.00,Wunderground v.1.15,2013-01-17 21:25:00,
2013-01-17 13:30:00,35.0,33.2,30.35,SSE,154,11.0,11.0,93,0.00,,,0.00,Wunderground v.1.15,2013-01-17 21:30:00,
2013-01-17 13:35:00,35.2,33.4,30.34,SE,145,11.0,11.0,93,0.00,,,0.00,Wunderground v.1.15,2013-01-17 21:35:00,
2013-01-17 13:40:00,35.4,33.6,30.34,SE,144,11.0,11.0,93,0.00,,,0.00,Wunderground v.1.15,2013-01-17 21:40:00,
2013-01-17 13:45:00,35.5,33.7,30.34,SSE,147,11.0,12.0,93,0.00,,,0.00,Wunderground v.1.15,2013-01-17 21:45:00,
2013-01-17 13:50:00,35.6,33.8,30.34,SSE,158,10.0,11.0,93,0.00,,,0.00,Wunderground v.1.15,2013-01-17 21:50:00,
2013-01-17 13:55:00,35.6,33.5,30.34,SSE,165,10.0,11.0,92,0.00,,,0.00,Wunderground v.1.15,2013-01-17 21:55:00,
2013-01-17 14:00:00,35.6,33.5,30.34,SSE,159,10.0,11.0,92,0.00,,,0.00,Wunderground v.1.15,2013-01-17 22:00:00,
2013-01-17 14:05:00,35.6,33.5,30.34,SSE,154,12.0,12.0,92,0.00,,,0.00,Wunderground v.1.15,2013-01-17 22:05:00,
2013-01-17 14:10:00,35.7,33.6,30.33,SE,143,13.0,13.0,92,0.00,,,0.00,Wunderground v.1.15,2013-01-17 22:10:00,
2013-01-17 14:20:00,35.8,33.7,30.33,SSE,150,12.0,12.0,92,0.00,,,0.00,Wunderground v.1.15,2013-01-17 22:20:00,
2013-01-17 14:25:00,35.7,33.6,30.33,SE,138,12.0,12.0,92,0.00,,,0.00,Wunderground v.1.15,2013-01-17 22:25:00,
2013-01-17 14:30:00,35.7,33.6,30.33,SSE,157,13.0,13.0,92,0.00,,,0.00,Wunderground v.1.15,2013-01-17 22:30:00,
2013-01-17 14:35:00,35.7,33.6,30.33,SSE,151,13.0,14.0,92,0.00,,,0.00,Wunderground v.1.15,2013-01-17 22:35:00,
2013-01-17 14:40:00,35.6,33.5,30.32,SSE,153,13.0,13.0,92,0.00,,,0.00,Wunderground v.1.15,2013-01-17 22:40:00,
2013-01-17 14:45:00,35.6,33.5,30.32,SSE,157,13.0,13.0,92,0.00,,,0.00,Wunderground v.1.15,2013-01-17 22:45:00,
2013-01-17 14:50:00,35.7,33.9,30.32,SSE,150,12.0,12.0,93,0.00,,,0.00,Wunderground v.1.15,2013-01-17 22:50:00,
2013-01-17 14:55:00,35.8,34.0,30.33,SE,145,11.0,12.0,93,0.00,,,0.00,Wunderground v.1.15,2013-01-17 22:55:00,
2013-01-17 15:00:00,35.9,34.1,30.33,SSE,152,10.0,10.0,93,0.00,,,0.00,Wunderground v.1.15,2013-01-17 23:00:00,
2013-01-17 15:05:00,36.0,33.9,30.32,SSE,158,10.0,11.0,92,0.00,,,0.00,Wunderground v.1.15,2013-01-17 23:05:00,
2013-01-17 15:10:00,36.1,34.0,30.33,South,173,10.0,10.0,92,0.00,,,0.00,Wunderground v.1.15,2013-01-17 23:10:00,
2013-01-17 15:15:00,36.1,34.0,30.33,SE,142,9.0,10.0,92,0.00,,,0.00,Wunderground v.1.15,2013-01-17 23:15:00,
2013-01-17 15:20:00,35.9,33.8,30.32,SE,140,8.0,11.0,92,0.00,,,0.00,Wunderground v.1.15,2013-01-17 23:20:00,
2013-01-17 15:25:00,35.6,33.5,30.32,SE,144,9.0,13.0,92,0.00,,,0.00,Wunderground v.1.15,2013-01-17 23:25:00,
2013-01-17 15:30:00,35.5,33.7,30.32,SE,137,11.0,11.0,93,0.00,,,0.00,Wunderground v.1.15,2013-01-17 23:30:00,
2013-01-17 15:35:00,35.5,33.7,30.32,SSE,150,11.0,12.0,93,0.00,,,0.00,Wunderground v.1.15,2013-01-17 23:35:00,
2013-01-17 15:40:00,35.5,33.7,30.32,SSE,153,11.0,14.0,93,0.00,,,0.00,Wunderground v.1.15,2013-01-17 23:40:00,
2013-01-17 15:45:00,35.6,33.8,30.32,SE,143,12.0,14.0,93,0.00,,,0.00,Wunderground v.1.15,2013-01-17 23:45:00,
2013-01-17 15:50:00,35.8,34.0,30.32,SE,125,12.0,12.0,93,0.00,,,0.00,Wunderground v.1.15,2013-01-17 23:50:00,
2013-01-17 15:55:00,35.7,33.6,30.32,SSE,147,13.0,14.0,92,0.00,,,0.00,Wunderground v.1.15,2013-01-17 23:55:00,
2013-01-17 16:00:00,35.7,33.9,30.32,SE,146,12.0,12.0,93,0.00,,,0.00,Wunderground v.1.15,2013-01-18 00:00:00,
2013-01-17 16:05:00,35.6,33.8,30.32,SSE,155,11.0,12.0,93,0.00,,,0.00,Wunderground v.1.15,2013-01-18 00:05:00,
2013-01-17 16:10:00,35.4,33.6,30.31,SSE,147,11.0,11.0,93,0.00,,,0.00,Wunderground v.1.15,2013-01-18 00:10:00,
2013-01-17 16:15:00,35.2,33.4,30.32,SSE,150,10.0,11.0,93,0.00,,,0.00,Wunderground v.1.15,2013-01-18 00:15:00,
2013-01-17 16:20:00,35.1,33.3,30.32,SSE,155,9.0,9.0,93,0.00,,,0.00,Wunderground v.1.15,2013-01-18 00:20:00,
2013-01-17 16:25:00,35.0,33.2,30.32,SE,144,9.0,9.0,93,0.00,,,0.00,Wunderground v.1.15,2013-01-18 00:25:00,
2013-01-17 16:30:00,35.0,33.2,30.32,SE,141,9.0,11.0,93,0.00,,,0.00,Wunderground v.1.15,2013-01-18 00:30:00,
2013-01-17 16:35:00,34.8,33.2,30.32,SSE,152,9.0,11.0,94,0.00,,,0.00,Wunderground v.1.15,2013-01-18 00:35:00,
2013-01-17 16:40:00,34.7,33.2,30.32,SSE,148,10.0,10.0,94,0.00,,,0.00,Wunderground v.1.15,2013-01-18 00:40:00,
2013-01-17 16:45:00,34.7,33.2,30.32,SE,144,9.0,10.0,94,0.00,,,0.00,Wunderground v.1.15,2013-01-18 00:45:00,
2013-01-17 16:55:00,34.5,33.0,30.32,SE,133,8.0,9.0,94,0.00,,,0.00,Wunderground v.1.15,2013-01-18 00:55:00,
2013-01-17 17:00:00,34.5,33.0,30.32,SE,146,8.0,9.0,94,0.00,,,0.00,Wunderground v.1.15,2013-01-18 01:00:00,
2013-01-17 17:05:00,34.5,33.0,30.32,SE,136,8.0,9.0,94,0.00,,,0.00,Wunderground v.1.15,2013-01-18 01:05:00,
2013-01-17 17:10:00,34.3,32.8,30.32,SE,140,8.0,9.0,94,0.00,,,0.00,Wunderground v.1.15,2013-01-18 01:10:00,
2013-01-17 17:15:00,34.1,32.8,30.32,SE,144,8.0,10.0,95,0.00,,,0.00,Wunderground v.1.15,2013-01-18 01:15:00,
2013-01-17 17:20:00,34.1,32.8,30.32,SE,142,9.0,9.0,95,0.00,,,0.00,Wunderground v.1.15,2013-01-18 01:20:00,
2013-01-17 17:25:00,33.9,32.6,30.32,SSE,155,10.0,10.0,95,0.00,,,0.00,Wunderground v.1.15,2013-01-18 01:25:00,
2013-01-17 17:30:00,33.7,32.4,30.32,SE,144,10.0,10.0,95,0.00,,,0.00,Wunderground v.1.15,2013-01-18 01:30:00,
2013-01-17 17:35:00,33.6,32.3,30.32,SE,140,10.0,10.0,95,0.00,,,0.00,Wunderground v.1.15,2013-01-18 01:35:00,
2013-01-17 17:40:00,33.5,32.5,30.32,SE,133,10.0,10.0,96,0.00,,,0.00,Wunderground v.1.15,2013-01-18 01:40:00,
2013-01-17 17:45:00,33.5,32.5,30.31,SE,130,11.0,11.0,96,0.00,,,0.00,Wunderground v.1.15,2013-01-18 01:45:00,
2013-01-17 17:50:00,33.3,32.3,30.31,SE,132,11.0,11.0,96,0.00,,,0.00,Wunderground v.1.15,2013-01-18 01:50:00,
2013-01-17 17:55:00,33.2,32.2,30.32,SE,129,11.0,11.0,96,0.00,,,0.00,Wunderground v.1.15,2013-01-18 01:55:00,
2013-01-17 18:00:00,33.2,32.2,30.32,SE,128,10.0,10.0,96,0.00,,,0.00,Wunderground v.1.15,2013-01-18 02:00:00,
2013-01-17 18:05:00,33.0,32.0,30.31,SE,128,9.0,10.0,96,0.00,,,0.00,Wunderground v.1.15,2013-01-18 02:05:00,
2013-01-17 18:10:00,33.1,32.3,30.32,SE,132,8.0,8.0,97,0.00,,,0.00,Wunderground v.1.15,2013-01-18 02:10:00,
2013-01-17 18:15:00,32.9,32.1,30.32,SE,135,8.0,8.0,97,0.00,,,0.00,Wunderground v.1.15,2013-01-18 02:15:00,
2013-01-17 18:20:00,32.8,32.0,30.32,SE,128,8.0,8.0,97,0.00,,,0.00,Wunderground v.1.15,2013-01-18 02:20:00,
2013-01-17 18:25:00,32.8,32.0,30.32,SE,136,9.0,9.0,97,0.00,,,0.00,Wunderground v.1.15,2013-01-18 02:25:00,
2013-01-17 18:30:00,32.7,31.9,30.32,SE,146,9.0,9.0,97,0.00,,,0.00,Wunderground v.1.15,2013-01-18 02:30:00,
2013-01-17 18:35:00,32.6,31.8,30.31,SE,143,9.0,10.0,97,0.00,,,0.00,Wunderground v.1.15,2013-01-18 02:35:00,
2013-01-17 18:40:00,32.5,31.7,30.31,SE,140,9.0,10.0,97,0.00,,,0.00,Wunderground v.1.15,2013-01-18 02:40:00,
2013-01-17 18:45:00,32.4,31.6,30.31,SE,144,10.0,10.0,97,0.00,,,0.00,Wunderground v.1.15,2013-01-18 02:45:00,
2013-01-17 18:50:00,32.5,31.7,30.32,SE,131,9.0,9.0,97,0.00,,,0.00,Wunderground v.1.15,2013-01-18 02:50:00,
2013-01-17 18:55:00,32.4,31.6,30.32,SE,140,8.0,9.0,97,0.00,,,0.00,Wunderground v.1.15,2013-01-18 02:55:00,
2013-01-17 19:00:00,32.4,31.6,30.32,SE,136,8.0,8.0,97,0.00,,,0.00,Wunderground v.1.15,2013-01-18 03:00:00,
2013-01-17 19:05:00,32.2,31.4,30.32,SE,134,9.0,9.0,97,0.00,,,0.00,Wunderground v.1.15,2013-01-18 03:05:00,
2013-01-17 19:10:00,32.1,31.3,30.32,SE,136,9.0,9.0,97,0.00,,,0.00,Wunderground v.1.15,2013-01-18 03:10:00,
2013-01-17 19:15:00,32.0,31.2,30.32,SE,138,10.0,10.0,97,0.00,,,0.00,Wunderground v.1.15,2013-01-18 03:15:00,
2013-01-17 19:20:00,31.9,31.1,30.32,SE,140,10.0,10.0,97,0.00,,,0.00,Wunderground v.1.15,2013-01-18 03:20:00,
2013-01-17 19:25:00,32.1,31.6,30.32,SE,140,10.0,11.0,98,0.00,,,0.00,Wunderground v.1.15,2013-01-18 03:25:00,
2013-01-17 19:30:00,32.1,31.6,30.32,SSE,147,10.0,10.0,98,0.00,,,0.00,Wunderground v.1.15,2013-01-18 03:30:00,
2013-01-17 19:35:00,32.2,31.7,30.32,SE,143,11.0,11.0,98,0.00,,,0.00,Wunderground v.1.15,2013-01-18 03:35:00,
2013-01-17 19:40:00,32.1,31.6,30.32,SE,138,10.0,10.0,98,0.00,,,0.00,Wunderground v.1.15,2013-01-18 03:40:00,
2013-01-17 19:50:00,31.9,31.4,30.32,SSE,153,11.0,11.0,98,0.00,,,0.00,Wunderground v.1.15,2013-01-18 03:50:00,
2013-01-17 19:55:00,31.9,31.4,30.32,SE,136,11.0,11.0,98,0.00,,,0.00,Wunderground v.1.15,2013-01-18 03:55:00,
2013-01-17 20:00:00,32.0,31.5,30.32,SE,126,11.0,12.0,98,0.00,,,0.00,Wunderground v.1.15,2013-01-18 04:00:00,
2013-01-17 20:05:00,31.9,31.4,30.32,SE,135,11.0,12.0,98,0.00,,,0.00,Wunderground v.1.15,2013-01-18 04:05:00,
2013-01-17 20:10:00,31.8,31.3,30.32,SE,138,11.0,11.0,98,0.00,,,0.00,Wunderground v.1.15,2013-01-18 04:10:00,
2013-01-17 20:15:00,31.9,31.4,30.32,SE,137,11.0,11.0,98,0.00,,,0.00,Wunderground v.1.15,2013-01-18 04:15:00,
2013-01-17 20:20:00,32.0,31.5,30.32,SE,144,10.0,10.0,98,0.00,,,0.00,Wunderground v.1.15,2013-01-18 04:20:00,
2013-01-17 20:25:00,31.9,31.4,30.32,SE,146,9.0,10.0,98,0.00,,,0.00,Wunderground v.1.15,2013-01-18 04:25:00,
2013-01-17 20:30:00,31.8,31.3,30.32,SSE,151,9.0,9.0,98,0.00,,,0.00,Wunderground v.1.15,2013-01-18 04:30:00,
2013-01-17 20:35:00,31.7,31.2,30.32,SE,146,9.0,9.0,98,0.00,,,0.00,Wunderground v.1.15,2013-01-18 04:35:00,
2013-01-17 20:40:00,31.7,31.2,30.32,SSE,155,9.0,9.0,98,0.00,,,0.00,Wunderground v.1.15,2013-01-18 04:40:00,
2013-01-17 20:45:00,31.7,31.2,30.32,SSE,160,10.0,10.0,98,0.00,,,0.00,Wunderground v.1.15,2013-01-18 04:45:00,
2013-01-17 20:50:00,31.5,31.0,30.32,SSE,149,9.0,9.0,98,0.00,,,0.00,Wunderground v.1.15,2013-01-18 04:50:00,
2013-01-17 20:55:00,31.7,31.2,30.32,SE,134,9.0,11.0,98,0.00,,,0.00,Wunderground v.1.15,2013-01-18 04:55:00,
2013-01-17 21:00:00,31.8,31.3,30.31,SE,138,9.0,9.0,98,0.00,,,0.00,Wunderground v.1.15,2013-01-18 05:00:00,
2013-01-17 21:05:00,31.7,31.2,30.32,SE,142,9.0,9.0,98,0.00,,,0.00,Wunderground v.1.15,2013-01-18 05:05:00,
2013-01-17 21:15:00,31.7,31.2,30.31,SE,139,10.0,11.0,98,0.00,,,0.00,Wunderground v.1.15,2013-01-18 05:15:00,
2013-01-17 21:20:00,31.7,31.2,30.32,SE,131,9.0,9.0,98,0.00,,,0.00,Wunderground v.1.15,2013-01-18 05:20:00,
2013-01-17 21:25:00,31.7,31.2,30.32,SE,141,9.0,9.0,98,0.00,,,0.00,Wunderground v.1.15,2013-01-18 05:25:00,
2013-01-17 21:30:00,31.7,31.2,30.32,SE,141,9.0,9.0,98,0.00,,,0.00,Wunderground v.1.15,2013-01-18 05:30:00,
2013-01-17 21:35:00,31.7,31.2,30.32,ESE,123,9.0,9.0,98,0.00,,,0.00,Wunderground v.1.15,2013-01-18 05:35:00,
2013-01-17 21:40:00,31.7,31.2,30.32,SE,134,9.0,9.0,98,0.00,,,0.00,Wunderground v.1.15,2013-01-18 05:40:00,
2013-01-17 21:45:00,31.7,31.2,30.32,SSE,150,8.0,9.0,98,0.00,,,0.00,Wunderground v.1.15,2013-01-18 05:45:00,
2013-01-17 21:50:00,31.7,31.2,30.32,SE,140,8.0,8.0,98,0.00,,,0.00,Wunderground v.1.15,2013-01-18 05:50:00,
2013-01-17 21:55:00,31.6,31.1,30.32,SSE,148,8.0,9.0,98,0.00,,,0.00,Wunderground v.1.15,2013-01-18 05:55:00,
2013-01-17 22:00:00,31.7,31.2,30.31,SE,146,8.0,8.0,98,0.00,,,0.00,Wunderground v.1.15,2013-01-18 06:00:00,
2013-01-17 22:05:00,31.7,31.2,30.31,SE,134,8.0,8.0,98,0.00,,,0.00,Wunderground v.1.15,2013-01-18 06:05:00,
2013-01-17 22:10:00,31.7,31.2,30.31,SE,132,8.0,8.0,98,0.00,,,0.00,Wunderground v.1.15,2013-01-18 06:10:00,
2013-01-17 22:15:00,31.5,31.0,30.31,SSE,148,8.0,8.0,98,0.00,,,0.00,Wunderground v.1.15,2013-01-18 06:15:00,
2013-01-17 22:20:00,31.5,31.0,30.31,SE,146,7.0,10.0,98,0.00,,,0.00,Wunderground v.1.15,2013-01-18 06:20:00,
2013-01-17 22:25:00,31.7,31.5,30.31,SE,144,8.0,10.0,99,0.00,,,0.00,Wunderground v.1.15,2013-01-18 06:25:00,
2013-01-17 22:35:00,31.5,31.0,30.31,SE,146,9.0,9.0,98,0.00,,,0.00,Wunderground v.1.15,2013-01-18 06:35:00,
2013-01-17 22:40:00,31.3,30.8,30.31,SE,134,8.0,8.0,98,0.00,,,0.00,Wunderground v.1.15,2013-01-18 06:40:00,
2013-01-17 22:45:00,31.3,30.8,30.31,SE,124,8.0,10.0,98,0.00,,,0.00,Wunderground v.1.15,2013-01-18 06:45:00,
2013-01-17 22:50:00,31.4,30.9,30.31,SSE,156,8.0,8.0,98,0.00,,,0.00,Wunderground v.1.15,2013-01-18 06:50:00,
2013-01-17 22:55:00,31.3,30.8,30.31,SSE,152,8.0,8.0,98,0.00,,,0.00,Wunderground v.1.15,2013-01-18 06:55:00,
2013-01-17 23:00:00,31.3,30.8,30.30,SE,142,9.0,9.0,98,0.00,,,0.00,Wunderground v.1.15,2013-01-18 07:00:00,
2013-01-17 23:05:00,31.3,30.8,30.31,SE,138,9.0,10.0,98,0.00,,,0.00,Wunderground v.1.15,2013-01-18 07:05:00,
2013-01-17 23:10:00,31.2,30.7,30.31,SE,140,9.0,9.0,98,0.00,,,0.00,Wunderground v.1.15,2013-01-18 07:10:00,
2013-01-17 23:15:00,31.3,30.8,30.31,SSE,148,8.0,9.0,98,0.00,,,0.00,Wunderground v.1.15,2013-01-18 07:15:00,
2013-01-17 23:20:00,31.3,30.8,30.31,SE,129,9.0,9.0,98,0.00,,,0.00,Wunderground v.1.15,2013-01-18 07:20:00,
2013-01-17 23:25:00,31.4,30.9,30.31,SE,124,9.0,10.0,98,0.00,,,0.00,Wunderground v.1.15,2013-01-18 07:25:00,
2013-01-17 23:30:00,31.3,30.8,30.31,SE,143,9.0,9.0,98,0.00,,,0.00,Wunderground v.1.15,2013-01-18 07:30:00,
2013-01-17 23:35:00,31.2,31.0,30.30,SE,138,9.0,9.0,99,0.00,,,0.00,Wunderground v.1.15,2013-01-18 07:35:00,
2013-01-17 23:40:00,31.2,31.0,30.30,SE,135,8.0,8.0,99,0.00,,,0.00,Wunderground v.1.15,2013-01-18 07:40:00,
2013-01-17 23:45:00,31.2,31.0,30.30,SE,141,8.0,9.0,99,0.00,,,0.00,Wunderground v.1.15,2013-01-18 07:45:00,
2013-01-17 23:50:00,31.3,31.1,30.30,SE,139,8.0,8.0,99,0.00,,,0.00,Wunderground v.1.15,2013-01-18 07:50:00,
2013-01-17 23:55:00,31.3,31.1,30.30,SSE,152,8.0,8.0,99,0.00,,,0.00,Wunderground v.1.15,2013-01-18 07:55:00,